createdAt,value
2019-05-23T00:03:18.184Z,84.64
2019-05-23T00:08:41.462Z,83.93
2019-05-23T00:13:49.407Z,84.08
2019-05-23T00:18:56.316Z,84.51
2019-05-23T00:24:03.115Z,84.21
2019-05-23T00:29:10.618Z,84.38
2019-05-23T00:34:17.917Z,84.00
2019-05-23T00:39:23.048Z,83.99
2019-05-23T00:44:27.963Z,83.80
2019-05-23T00:49:33.718Z,83.74
2019-05-23T00:54:39.334Z,82.76
2019-05-23T00:59:44.346Z,83.69
2019-05-23T01:04:50.849Z,82.47
2019-05-23T01:09:55.201Z,82.55
2019-05-23T01:14:59.574Z,84.73
2019-05-23T01:20:08.082Z,82.75
2019-05-23T01:25:13.999Z,82.19
2019-05-23T01:30:38.358Z,83.01
2019-05-23T01:35:42.946Z,81.90
2019-05-23T01:40:47.432Z,81.71
2019-05-23T01:45:52.405Z,81.13
2019-05-23T01:50:57.747Z,81.12
2019-05-23T01:56:02.216Z,81.08
2019-05-23T02:01:07.342Z,81.35
2019-05-23T02:06:11.897Z,81.49
2019-05-23T02:11:18.458Z,81.54
2019-05-23T02:16:23.536Z,80.98
2019-05-23T02:21:28.686Z,81.45
2019-05-23T02:26:33.732Z,80.67
2019-05-23T02:31:38.831Z,80.60
2019-05-23T02:36:43.189Z,81.74
2019-05-23T02:41:54.831Z,81.98
2019-05-23T02:47:03.853Z,81.27
2019-05-23T02:52:15.696Z,82.43
2019-05-23T02:57:22.097Z,81.91
2019-05-23T03:02:46.786Z,82.99
2019-05-23T03:07:53.342Z,81.35
2019-05-23T03:12:58.856Z,81.64
2019-05-23T03:18:04.945Z,81.89
2019-05-23T03:23:13.369Z,81.77
2019-05-23T03:28:19.231Z,81.39
2019-05-23T03:33:25.293Z,82.32
2019-05-23T03:38:30.132Z,81.15
2019-05-23T03:43:36.226Z,81.85
2019-05-23T03:48:42.468Z,82.70
2019-05-23T03:53:47.728Z,80.46
2019-05-23T03:58:54.364Z,80.09
2019-05-23T04:04:00.779Z,81.04
2019-05-23T04:09:08.212Z,81.14
2019-05-23T04:14:12.955Z,81.12
2019-05-23T04:19:17.814Z,81.92
2019-05-23T04:24:23.006Z,80.84
2019-05-23T04:29:27.618Z,80.52
2019-05-23T04:34:32.016Z,79.36
2019-05-23T04:39:36.458Z,79.29
2019-05-23T04:44:44.000Z,80.78
2019-05-23T04:49:47.763Z,79.60
2019-05-23T04:54:52.188Z,79.91
2019-05-23T04:59:56.865Z,79.91
2019-05-23T05:05:05.489Z,80.75
2019-05-23T05:10:14.449Z,79.89
2019-05-23T05:15:19.555Z,79.59
2019-05-23T05:20:24.119Z,78.38
2019-05-23T05:25:29.470Z,78.76
2019-05-23T05:30:34.188Z,78.44
2019-05-23T05:35:39.197Z,78.83
2019-05-23T05:40:43.561Z,78.14
2019-05-23T05:45:47.938Z,78.17
2019-05-23T05:50:53.047Z,76.93
2019-05-23T05:55:58.422Z,77.28
2019-05-23T06:01:04.813Z,76.93
2019-05-23T06:06:13.866Z,75.40
2019-05-23T06:11:18.276Z,75.92
2019-05-23T06:16:22.728Z,74.79
2019-05-23T06:21:28.916Z,73.52
2019-05-23T06:26:33.308Z,73.30
2019-05-23T06:31:40.029Z,72.58
2019-05-23T06:36:44.768Z,73.00
2019-05-23T06:41:49.291Z,73.96
2019-05-23T06:46:55.230Z,72.65
2019-05-23T06:51:59.734Z,71.58
2019-05-23T06:57:04.536Z,70.82
2019-05-23T07:02:09.147Z,70.38
2019-05-23T07:07:14.454Z,71.50
2019-05-23T07:12:19.099Z,71.18
2019-05-23T07:17:25.331Z,70.81
2019-05-23T07:22:29.744Z,70.36
2019-05-23T07:27:35.437Z,68.25
2019-05-23T07:32:39.991Z,67.53
2019-05-23T07:37:44.462Z,66.95
2019-05-23T07:42:49.170Z,66.24
2019-05-23T07:47:53.768Z,62.97
2019-05-23T07:52:59.873Z,63.73
2019-05-23T07:58:04.673Z,64.17
2019-05-23T08:03:10.491Z,63.73
2019-05-23T08:08:15.153Z,63.99
2019-05-23T08:13:19.583Z,65.01
2019-05-23T08:18:23.951Z,63.58
2019-05-23T08:23:28.377Z,64.18
2019-05-23T08:28:34.088Z,62.21
2019-05-23T08:33:40.093Z,62.29
2019-05-23T08:38:44.812Z,62.35
2019-05-23T08:43:49.339Z,58.34
2019-05-23T08:48:53.760Z,58.34
2019-05-23T08:53:58.160Z,60.18
2019-05-23T08:59:02.705Z,58.48
2019-05-23T09:04:08.938Z,59.86
2019-05-23T09:09:29.070Z,57.16
2019-05-23T09:14:21.156Z,57.47
2019-05-23T09:19:26.397Z,57.08
2019-05-23T09:24:30.893Z,54.54
2019-05-23T09:29:36.851Z,55.02
2019-05-23T09:34:42.111Z,54.67
2019-05-23T09:39:47.885Z,50.74
2019-05-23T09:44:52.259Z,54.30
2019-05-23T09:49:56.665Z,53.47
2019-05-23T09:55:01.039Z,50.48
2019-05-23T10:00:09.536Z,46.99
2019-05-23T10:05:14.067Z,49.57
2019-05-23T10:10:19.665Z,53.67
2019-05-23T10:15:34.624Z,51.03
2019-05-23T10:20:39.363Z,49.33
2019-05-23T10:25:44.002Z,46.85
2019-05-23T10:30:48.378Z,49.33
2019-05-23T10:36:00.243Z,49.83
2019-05-23T10:40:59.914Z,48.25
2019-05-23T10:46:04.292Z,47.93
2019-05-23T10:51:08.701Z,50.04
2019-05-23T10:56:13.306Z,50.65
2019-05-23T11:01:17.683Z,50.78
2019-05-23T11:06:22.301Z,47.71
2019-05-23T11:11:27.158Z,49.40
2019-05-23T11:16:31.604Z,49.55
2019-05-23T11:21:35.975Z,49.95
2019-05-23T11:26:40.450Z,49.48
2019-05-23T11:31:44.985Z,49.04
2019-05-23T11:36:49.494Z,49.90
2019-05-23T11:41:53.859Z,49.13
2019-05-23T11:46:58.591Z,48.68
2019-05-23T11:52:03.092Z,49.13
2019-05-23T11:57:09.642Z,49.29
2019-05-23T12:02:18.630Z,47.70
2019-05-23T12:07:30.825Z,47.14
2019-05-23T12:12:35.174Z,47.10
2019-05-23T12:17:40.975Z,46.84
2019-05-23T12:22:45.677Z,47.13
2019-05-23T12:27:50.133Z,47.16
2019-05-23T12:32:55.542Z,48.27
2019-05-23T12:38:02.378Z,48.23
2019-05-23T12:43:06.047Z,48.42
2019-05-23T12:48:12.042Z,47.19
2019-05-23T12:53:17.866Z,48.15
2019-05-23T12:58:22.994Z,46.37
2019-05-23T13:03:27.509Z,47.58
2019-05-23T13:08:33.079Z,46.79
2019-05-23T13:13:37.520Z,47.13
2019-05-23T13:18:41.866Z,46.92
2019-05-23T13:23:46.326Z,47.08
2019-05-23T13:28:50.770Z,46.50
2019-05-23T13:33:55.277Z,45.58
2019-05-23T13:38:59.888Z,46.04
2019-05-23T13:44:04.583Z,46.23
2019-05-23T13:49:08.996Z,46.35
2019-05-23T13:54:14.469Z,46.92
2019-05-23T13:59:18.919Z,42.93
2019-05-23T14:04:23.861Z,45.54
2019-05-23T14:09:28.982Z,46.00
2019-05-23T14:14:33.596Z,46.33
2019-05-23T14:19:38.116Z,45.49
2019-05-23T14:24:43.643Z,45.43
2019-05-23T14:29:48.139Z,45.58
2019-05-23T14:34:54.144Z,45.72
2019-05-23T14:40:00.311Z,45.92
2019-05-23T14:45:08.140Z,44.16
2019-05-23T14:50:20.716Z,44.28
2019-05-23T14:55:25.843Z,44.71
2019-05-23T15:00:30.464Z,44.32
2019-05-23T15:05:34.997Z,42.63
2019-05-23T15:10:39.442Z,41.73
2019-05-23T15:15:43.933Z,40.66
2019-05-23T15:20:48.452Z,36.97
2019-05-23T15:25:52.891Z,36.15
2019-05-23T15:30:57.253Z,36.65
2019-05-23T15:36:01.763Z,36.65
2019-05-23T15:41:06.139Z,36.56
2019-05-23T15:46:10.539Z,38.35
2019-05-23T15:51:16.625Z,38.15
2019-05-23T15:56:59.916Z,38.29
2019-05-23T16:02:05.947Z,39.24
2019-05-23T16:07:11.846Z,39.42
2019-05-23T16:12:16.457Z,39.15
2019-05-23T16:17:20.829Z,40.72
2019-05-23T16:22:25.259Z,40.10
2019-05-23T16:27:29.795Z,37.86
2019-05-23T16:32:34.264Z,38.92
2019-05-23T16:37:38.706Z,39.22
2019-05-23T16:42:43.048Z,38.43
2019-05-23T16:47:47.498Z,38.81
2019-05-23T16:52:52.009Z,39.67
2019-05-23T16:57:57.988Z,40.26
2019-05-23T17:03:06.944Z,39.96
2019-05-23T17:08:29.544Z,39.91
2019-05-23T17:13:36.609Z,39.79
2019-05-23T17:18:42.590Z,40.59
2019-05-23T17:23:51.625Z,39.16
2019-05-23T17:28:57.622Z,39.70
2019-05-23T17:34:02.302Z,40.16
2019-05-23T17:39:10.073Z,39.85
2019-05-23T17:44:14.748Z,39.26
2019-05-23T17:49:19.286Z,38.37
2019-05-23T17:54:24.229Z,37.50
2019-05-23T17:59:28.737Z,37.61
2019-05-23T18:04:33.293Z,37.78
2019-05-23T18:09:37.635Z,37.72
2019-05-23T18:14:42.048Z,37.85
2019-05-23T18:19:46.418Z,38.35
2019-05-23T18:24:50.818Z,38.82
2019-05-23T18:29:55.698Z,39.34
2019-05-23T18:35:00.277Z,39.43
2019-05-23T18:40:07.321Z,39.83
2019-05-23T18:45:12.760Z,40.09
2019-05-23T18:50:19.460Z,40.34
2019-05-23T18:55:24.182Z,40.69
2019-05-23T19:00:47.385Z,41.32
2019-05-23T19:05:52.123Z,42.04
2019-05-23T19:10:56.460Z,42.40
2019-05-23T19:16:00.849Z,42.54
2019-05-23T19:21:05.978Z,42.80
2019-05-23T19:26:10.570Z,44.30
2019-05-23T19:31:16.264Z,44.00
2019-05-23T19:36:20.797Z,46.22
2019-05-23T19:41:36.886Z,46.02
2019-05-23T19:46:31.529Z,48.34
2019-05-23T19:51:36.111Z,49.34
2019-05-23T19:56:40.455Z,49.54
2019-05-23T20:01:47.979Z,50.46
2019-05-23T20:06:52.981Z,51.84
2019-05-23T20:11:57.703Z,52.05
2019-05-23T20:17:02.119Z,53.92
2019-05-23T20:22:06.507Z,54.73
2019-05-23T20:27:11.082Z,54.55
2019-05-23T20:32:15.424Z,55.24
2019-05-23T20:37:20.371Z,55.76
2019-05-23T20:42:24.759Z,55.65
2019-05-23T20:47:29.343Z,56.37
2019-05-23T20:52:33.781Z,56.60
2019-05-23T20:57:39.129Z,58.28
2019-05-23T21:02:43.767Z,59.72
2019-05-23T21:07:48.128Z,60.63
2019-05-23T21:12:52.518Z,60.98
2019-05-23T21:17:56.950Z,60.62
2019-05-23T21:23:01.370Z,60.27
2019-05-23T21:28:05.744Z,59.37
2019-05-23T21:33:10.267Z,60.80
2019-05-23T21:38:14.631Z,62.10
2019-05-23T21:43:19.130Z,62.66
2019-05-23T21:48:23.545Z,62.51
2019-05-23T21:53:28.132Z,62.98
2019-05-23T21:58:32.505Z,63.86
2019-05-23T22:03:54.360Z,64.60
2019-05-23T22:08:58.724Z,65.71
2019-05-23T22:14:03.101Z,66.62
2019-05-23T22:19:09.407Z,66.14
2019-05-23T22:24:14.925Z,66.87
2019-05-23T22:29:19.489Z,67.78
2019-05-23T22:34:31.175Z,66.94
2019-05-23T22:39:35.630Z,67.43
2019-05-23T22:44:40.071Z,67.75
2019-05-23T22:49:44.398Z,67.52
2019-05-23T22:54:48.777Z,68.01
2019-05-23T22:59:53.168Z,68.93
2019-05-23T23:04:57.885Z,69.26
2019-05-23T23:10:04.015Z,70.16
2019-05-23T23:15:08.420Z,70.76
2019-05-23T23:20:12.973Z,71.74
2019-05-23T23:25:17.392Z,72.18
2019-05-23T23:30:26.974Z,72.96
2019-05-23T23:35:31.370Z,72.77
2019-05-23T23:40:35.845Z,72.57
2019-05-23T23:45:59.347Z,72.71
2019-05-23T23:51:21.992Z,73.64
2019-05-23T23:56:44.457Z,73.93
